Time;durP1;ratioP1;P1;durP2;ratioP2;P2;SDS_P1;SDS_P2;PMS_P1;PMS_P2;Temp;Humidity;BMP_temperature;BMP_pressure;BME280_temperature;BME280_humidity;BME280_pressure;Samples;Min_cycle;Max_cycle;Signal;HPM_P1;HPM_P2
2023/01/30 00:01:17;;;;;;;14.10;8.60;;;;;;;;;;5068364;28;20413;-28
2023/01/30 00:03:44;;;;;;;16.67;8.53;;;;;;;;;;5067038;28;20205;-29
2023/01/30 00:06:11;;;;;;;13.57;7.67;;;;;;;;;;5073285;28;20226;-32
2023/01/30 00:08:38;;;;;;;13.43;8.17;;;;;;;;;;5068365;28;20202;-31
2023/01/30 00:11:07;;;;;;;13.20;8.40;;;;;;;;;;5069543;28;20229;-31
2023/01/30 00:13:34;;;;;;;13.07;8.10;;;;;;;;;;5081569;28;20216;-36
2023/01/30 00:16:01;;;;;;;11.27;7.47;;;;;;;;;;5077648;28;20628;-30
2023/01/30 00:18:29;;;;;;;12.27;6.87;;;;;;;;;;5076633;28;20533;-36
2023/01/30 00:20:56;;;;;;;10.60;7.07;;;;;;;;;;5075146;28;20617;-34
2023/01/30 00:23:23;;;;;;;10.57;6.70;;;;;;;;;;5072016;28;20310;-34
2023/01/30 00:25:50;;;;;;;10.73;7.03;;;;;;;;;;5069375;28;20237;-34
2023/01/30 00:28:19;;;;;;;13.20;7.40;;;;;;;;;;5071812;28;20287;-30
2023/01/30 00:30:48;;;;;;;11.47;6.97;;;;;;;;;;5081351;28;20725;-33
2023/01/30 00:33:16;;;;;;;14.40;7.30;;;;;;;;;;5077051;28;20205;-34
2023/01/30 00:35:44;;;;;;;10.60;7.10;;;;;;;;;;5071756;28;20202;-32
2023/01/30 00:38:11;;;;;;;10.53;7.17;;;;;;;;;;5074665;28;20231;-35
2023/01/30 00:40:38;;;;;;;9.30;6.30;;;;;;;;;;5076324;28;20248;-29
2023/01/30 00:48:37;;;;;;;10.97;6.60;;;;;;;;;;5073801;28;20204;-36
2023/01/30 00:51:05;;;;;;;9.93;6.60;;;;;;;;;;5076232;28;20709;-34
2023/01/30 00:53:32;;;;;;;9.63;5.90;;;;;;;;;;5074260;28;20698;-29
2023/01/30 00:55:59;;;;;;;10.97;6.13;;;;;;;;;;5072631;28;20635;-34
2023/01/30 00:58:26;;;;;;;10.10;6.20;;;;;;;;;;5074092;28;20208;-29
2023/01/30 01:00:55;;;;;;;12.63;7.40;;;;;;;;;;5073364;28;20259;-30
2023/01/30 01:03:22;;;;;;;11.37;6.93;;;;;;;;;;5076427;28;20652;-31
2023/01/30 01:05:49;;;;;;;10.50;6.77;;;;;;;;;;5068670;28;20225;-33
2023/01/30 01:08:17;;;;;;;10.93;7.10;;;;;;;;;;5067700;28;20208;-38
2023/01/30 01:10:44;;;;;;;10.17;6.37;;;;;;;;;;5077672;28;20217;-27
2023/01/30 01:13:11;;;;;;;11.57;6.37;;;;;;;;;;5073469;28;20201;-32
2023/01/30 01:15:38;;;;;;;9.57;6.20;;;;;;;;;;5069204;28;20205;-33
2023/01/30 01:18:06;;;;;;;9.10;6.57;;;;;;;;;;5075787;28;20236;-35
2023/01/30 01:20:34;;;;;;;7.70;6.03;;;;;;;;;;5068142;28;20236;-26
2023/01/30 01:23:01;;;;;;;7.07;5.50;;;;;;;;;;5077394;28;20216;-27
2023/01/30 01:25:28;;;;;;;8.73;6.53;;;;;;;;;;5078870;28;20201;-32
2023/01/30 01:27:55;;;;;;;10.93;7.00;;;;;;;;;;5066848;28;20217;-35
2023/01/30 01:30:22;;;;;;;11.17;7.03;;;;;;;;;;5082592;28;20650;-34
2023/01/30 01:32:49;;;;;;;11.30;7.37;;;;;;;;;;5078990;28;20203;-28
2023/01/30 01:35:18;;;;;;;8.97;5.97;;;;;;;;;;5070360;28;20205;-29
2023/01/30 01:37:46;;;;;;;8.70;6.23;;;;;;;;;;5066770;28;20198;-28
2023/01/30 01:43:02;;;;;;;9.33;6.50;;;;;;;;;;5068487;28;20298;-33
2023/01/30 01:45:30;;;;;;;11.13;7.33;;;;;;;;;;5074326;28;20205;-27
2023/01/30 01:48:00;;;;;;;11.07;6.60;;;;;;;;;;5068969;28;20589;-32
2023/01/30 01:50:32;;;;;;;9.73;6.30;;;;;;;;;;5067393;28;20426;-31
2023/01/30 01:53:00;;;;;;;9.93;6.00;;;;;;;;;;5068630;28;20290;-27
2023/01/30 01:55:27;;;;;;;10.03;6.13;;;;;;;;;;5082027;28;20515;-29
2023/01/30 01:57:55;;;;;;;9.07;5.90;;;;;;;;;;5077088;28;20204;-34
2023/01/30 02:00:23;;;;;;;11.87;7.50;;;;;;;;;;5070756;28;20241;-29
2023/01/30 02:02:53;;;;;;;9.53;6.17;;;;;;;;;;5066542;28;20201;-33
2023/01/30 02:05:21;;;;;;;10.67;6.33;;;;;;;;;;5065732;28;20205;-31
2023/01/30 02:07:52;;;;;;;10.43;6.90;;;;;;;;;;5065854;28;20699;-33
2023/01/30 02:10:21;;;;;;;9.27;6.13;;;;;;;;;;5060879;28;20209;-29
2023/01/30 02:12:48;;;;;;;8.60;5.50;;;;;;;;;;5068867;28;20197;-37
2023/01/30 02:15:15;;;;;;;10.37;7.10;;;;;;;;;;5066428;28;20209;-34
2023/01/30 02:17:42;;;;;;;9.50;5.67;;;;;;;;;;5067164;28;20217;-34
2023/01/30 02:20:16;;;;;;;10.40;7.20;;;;;;;;;;5066254;28;20205;-32
2023/01/30 02:22:55;;;;;;;10.13;6.40;;;;;;;;;;5066801;28;20209;-32
2023/01/30 02:25:28;;;;;;;13.00;6.73;;;;;;;;;;5067447;28;20218;-33
2023/01/30 02:28:06;;;;;;;11.33;6.53;;;;;;;;;;5075280;28;20240;-33
2023/01/30 02:30:41;;;;;;;11.03;6.30;;;;;;;;;;5071762;28;20215;-30
2023/01/30 02:33:12;;;;;;;9.13;6.00;;;;;;;;;;5066667;28;20208;-33
2023/01/30 02:35:53;;;;;;;11.20;7.03;;;;;;;;;;5067200;28;20208;-33
2023/01/30 02:38:25;;;;;;;12.50;7.13;;;;;;;;;;5077165;28;20644;-32
2023/01/30 02:40:55;;;;;;;9.67;6.70;;;;;;;;;;5065874;28;20233;-28
2023/01/30 02:43:27;;;;;;;12.43;7.87;;;;;;;;;;5075457;28;20197;-29
2023/01/30 02:45:57;;;;;;;9.17;6.13;;;;;;;;;;5068573;28;20208;-34
2023/01/30 02:48:27;;;;;;;10.13;6.13;;;;;;;;;;5067535;28;20220;-30
2023/01/30 02:50:57;;;;;;;8.80;6.70;;;;;;;;;;5078017;28;20227;-33
2023/01/30 02:53:26;;;;;;;10.43;6.23;;;;;;;;;;5074423;28;20208;-31
2023/01/30 02:55:53;;;;;;;12.60;7.00;;;;;;;;;;5070140;28;20200;-30
2023/01/30 02:58:23;;;;;;;12.70;7.03;;;;;;;;;;5073724;28;20201;-29
2023/01/30 03:01:02;;;;;;;9.03;6.13;;;;;;;;;;5080984;28;20224;-31
2023/01/30 03:03:46;;;;;;;8.60;5.93;;;;;;;;;;5074222;28;20258;-30
2023/01/30 03:06:22;;;;;;;9.67;6.20;;;;;;;;;;5064073;28;20590;-30
2023/01/30 03:08:56;;;;;;;9.50;5.97;;;;;;;;;;5065617;28;20200;-27
2023/01/30 03:11:25;;;;;;;9.90;6.07;;;;;;;;;;5071727;28;20244;-29
2023/01/30 03:13:53;;;;;;;9.50;6.67;;;;;;;;;;5071707;28;20582;-33
2023/01/30 03:16:26;;;;;;;9.13;6.70;;;;;;;;;;5090196;28;20209;-26
2023/01/30 03:18:53;;;;;;;9.20;6.60;;;;;;;;;;5086484;28;20200;-26
2023/01/30 03:21:20;;;;;;;10.87;7.07;;;;;;;;;;5077509;28;20239;-27
2023/01/30 03:23:48;;;;;;;11.77;6.50;;;;;;;;;;5081912;28;20209;-35
2023/01/30 03:26:18;;;;;;;11.47;6.80;;;;;;;;;;5070462;28;20900;-29
2023/01/30 03:28:46;;;;;;;11.00;7.23;;;;;;;;;;5079832;28;20294;-28
2023/01/30 03:31:14;;;;;;;11.30;7.20;;;;;;;;;;5089959;28;20705;-31
2023/01/30 03:33:43;;;;;;;10.07;7.00;;;;;;;;;;5083046;28;20237;-33
2023/01/30 03:36:11;;;;;;;11.83;7.17;;;;;;;;;;5073136;28;20837;-31
2023/01/30 03:38:38;;;;;;;13.80;7.37;;;;;;;;;;5081238;28;20197;-34
2023/01/30 03:41:06;;;;;;;13.30;7.20;;;;;;;;;;5075557;28;20541;-29
2023/01/30 03:43:33;;;;;;;11.43;7.70;;;;;;;;;;5083496;28;20212;-29
2023/01/30 03:46:00;;;;;;;13.23;6.53;;;;;;;;;;5072147;28;20590;-30
2023/01/30 03:48:27;;;;;;;9.60;5.77;;;;;;;;;;5071079;28;20582;-29
2023/01/30 03:50:56;;;;;;;10.50;6.63;;;;;;;;;;5079864;28;20239;-27
2023/01/30 03:53:23;;;;;;;6.70;3.70;;;;;;;;;;5090383;28;20199;-34
2023/01/30 03:55:50;;;;;;;11.30;6.37;;;;;;;;;;5079247;28;20205;-31
2023/01/30 03:58:17;;;;;;;11.87;7.07;;;;;;;;;;5079355;28;20208;-34
2023/01/30 04:00:44;;;;;;;12.00;7.50;;;;;;;;;;5090085;28;20581;-30
2023/01/30 04:03:11;;;;;;;11.60;7.13;;;;;;;;;;5082800;28;20205;-32
2023/01/30 04:05:38;;;;;;;12.17;6.87;;;;;;;;;;5077431;28;20201;-37
2023/01/30 04:08:07;;;;;;;11.00;6.47;;;;;;;;;;5068572;28;20231;-30
2023/01/30 04:10:34;;;;;;;10.63;7.07;;;;;;;;;;5067167;28;20224;-33
2023/01/30 04:13:01;;;;;;;11.33;5.60;;;;;;;;;;5068738;28;20224;-30
2023/01/30 04:15:28;;;;;;;10.40;6.17;;;;;;;;;;5072315;28;20209;-27
2023/01/30 04:17:55;;;;;;;9.13;5.80;;;;;;;;;;5080738;28;20193;-30
2023/01/30 04:20:23;;;;;;;11.00;6.40;;;;;;;;;;5076076;28;20575;-31
2023/01/30 04:22:50;;;;;;;7.47;4.53;;;;;;;;;;5081295;28;20261;-32
2023/01/30 04:25:19;;;;;;;12.57;6.73;;;;;;;;;;5078579;28;20205;-30
2023/01/30 04:27:46;;;;;;;10.83;6.27;;;;;;;;;;5068906;28;20722;-35
2023/01/30 04:30:13;;;;;;;9.93;6.27;;;;;;;;;;5074950;28;20206;-32
2023/01/30 04:32:40;;;;;;;8.77;5.23;;;;;;;;;;5079268;28;20198;-31
2023/01/30 04:35:07;;;;;;;9.90;5.73;;;;;;;;;;5079712;28;20205;-36
2023/01/30 04:37:34;;;;;;;7.83;5.17;;;;;;;;;;5081534;28;20200;-37
2023/01/30 04:40:02;;;;;;;10.20;6.10;;;;;;;;;;5070027;28;20633;-29
2023/01/30 04:42:30;;;;;;;10.13;6.10;;;;;;;;;;5069638;28;20229;-29
2023/01/30 04:44:57;;;;;;;6.40;3.83;;;;;;;;;;5076913;28;20602;-32
2023/01/30 04:47:24;;;;;;;10.80;6.20;;;;;;;;;;5082299;28;20223;-30
2023/01/30 04:49:51;;;;;;;11.03;6.73;;;;;;;;;;5080015;28;20197;-33
2023/01/30 04:52:18;;;;;;;13.23;7.13;;;;;;;;;;5071927;28;20290;-33
2023/01/30 04:54:45;;;;;;;11.37;5.87;;;;;;;;;;5084866;28;20702;-31
2023/01/30 04:57:13;;;;;;;10.00;5.97;;;;;;;;;;5074538;28;20204;-30
2023/01/30 04:59:41;;;;;;;11.00;5.90;;;;;;;;;;5070170;28;20209;-30
2023/01/30 05:02:08;;;;;;;6.90;4.30;;;;;;;;;;5077139;28;20607;-31
2023/01/30 05:04:35;;;;;;;3.57;2.30;;;;;;;;;;5072537;28;20201;-37
2023/01/30 05:07:02;;;;;;;6.63;4.27;;;;;;;;;;5072978;28;20380;-36
2023/01/30 05:09:29;;;;;;;7.57;4.10;;;;;;;;;;5088373;28;20201;-31
2023/01/30 05:11:56;;;;;;;11.20;6.77;;;;;;;;;;5081405;28;20536;-32
2023/01/30 05:14:23;;;;;;;6.47;4.23;;;;;;;;;;5067589;28;20612;-31
2023/01/30 05:16:52;;;;;;;12.03;6.17;;;;;;;;;;5079181;28;20200;-32
2023/01/30 05:19:19;;;;;;;8.80;5.40;;;;;;;;;;5069247;28;20423;-29
2023/01/30 05:21:46;;;;;;;10.03;5.77;;;;;;;;;;5071721;28;20213;-28
2023/01/30 05:24:13;;;;;;;7.57;4.27;;;;;;;;;;5088268;28;20218;-31
2023/01/30 05:26:40;;;;;;;10.03;5.23;;;;;;;;;;5077454;28;20197;-31
2023/01/30 05:29:07;;;;;;;11.13;6.90;;;;;;;;;;5067701;28;20224;-30
2023/01/30 05:31:35;;;;;;;6.53;4.93;;;;;;;;;;5073064;28;20224;-29
2023/01/30 05:34:03;;;;;;;8.67;5.70;;;;;;;;;;5078657;28;20254;-31
2023/01/30 05:36:30;;;;;;;11.27;6.23;;;;;;;;;;5072052;28;20205;-33
2023/01/30 05:38:58;;;;;;;8.30;6.07;;;;;;;;;;5075811;28;20280;-33
2023/01/30 05:41:25;;;;;;;9.73;6.23;;;;;;;;;;5074976;28;20217;-34
2023/01/30 05:43:52;;;;;;;9.20;5.73;;;;;;;;;;5072861;28;20227;-37
2023/01/30 05:46:19;;;;;;;12.13;6.67;;;;;;;;;;5076911;28;20205;-35
2023/01/30 05:48:46;;;;;;;10.27;5.90;;;;;;;;;;5066211;28;20225;-31
2023/01/30 05:51:19;;;;;;;8.93;5.70;;;;;;;;;;5075752;28;20232;-36
2023/01/30 05:53:46;;;;;;;9.57;6.33;;;;;;;;;;5076095;28;20201;-31
2023/01/30 05:56:13;;;;;;;9.97;5.77;;;;;;;;;;5065470;28;20201;-34
2023/01/30 05:58:40;;;;;;;8.73;5.57;;;;;;;;;;5074090;28;20204;-33
2023/01/30 06:01:08;;;;;;;6.00;4.33;;;;;;;;;;5082046;28;20624;-32
2023/01/30 06:03:36;;;;;;;7.80;4.57;;;;;;;;;;5082988;28;20211;-34
2023/01/30 06:06:03;;;;;;;9.00;5.70;;;;;;;;;;5074388;28;20192;-32
2023/01/30 06:08:32;;;;;;;7.17;4.67;;;;;;;;;;5075921;28;20232;-33
2023/01/30 06:11:01;;;;;;;8.87;4.93;;;;;;;;;;5073304;28;20224;-33
2023/01/30 06:13:28;;;;;;;8.17;3.90;;;;;;;;;;5075628;28;20197;-32
2023/01/30 06:15:55;;;;;;;7.77;4.53;;;;;;;;;;5078537;28;20212;-34
2023/01/30 06:18:22;;;;;;;8.67;4.73;;;;;;;;;;5079368;28;20201;-30
2023/01/30 06:20:49;;;;;;;11.47;6.10;;;;;;;;;;5073247;28;20225;-34
2023/01/30 06:23:17;;;;;;;9.37;5.20;;;;;;;;;;5079432;28;20212;-31
2023/01/30 06:25:48;;;;;;;5.10;3.53;;;;;;;;;;5077698;28;20204;-33
2023/01/30 06:28:15;;;;;;;7.47;4.97;;;;;;;;;;5076347;28;20540;-28
2023/01/30 06:30:43;;;;;;;7.60;5.40;;;;;;;;;;5079855;28;20852;-34
2023/01/30 06:33:10;;;;;;;1.60;1.20;;;;;;;;;;5088164;28;20239;-33
2023/01/30 06:35:37;;;;;;;8.80;5.30;;;;;;;;;;5072912;28;20208;-28
2023/01/30 06:38:05;;;;;;;8.70;4.73;;;;;;;;;;5077346;28;20192;-31
2023/01/30 06:40:32;;;;;;;8.40;4.80;;;;;;;;;;5081046;28;20204;-29
2023/01/30 06:43:01;;;;;;;7.70;4.33;;;;;;;;;;5084584;28;20197;-31
2023/01/30 06:45:28;;;;;;;8.97;5.40;;;;;;;;;;5082496;28;20227;-35
2023/01/30 06:47:55;;;;;;;7.00;4.07;;;;;;;;;;5080376;28;20224;-33
2023/01/30 06:50:24;;;;;;;9.70;5.73;;;;;;;;;;5073963;28;20205;-35
2023/01/30 06:52:52;;;;;;;5.97;3.87;;;;;;;;;;5078029;28;20219;-36
2023/01/30 06:55:20;;;;;;;8.83;5.10;;;;;;;;;;5085066;28;20207;-32
2023/01/30 06:57:48;;;;;;;1.60;1.33;;;;;;;;;;5079413;28;20365;-28
2023/01/30 07:00:17;;;;;;;4.13;2.50;;;;;;;;;;5082272;28;20220;-30
2023/01/30 07:02:44;;;;;;;8.77;5.47;;;;;;;;;;5083344;28;20649;-33
2023/01/30 07:05:12;;;;;;;2.03;1.77;;;;;;;;;;5076855;28;20212;-31
2023/01/30 07:07:39;;;;;;;6.97;4.47;;;;;;;;;;5077584;28;20220;-25
2023/01/30 07:10:07;;;;;;;3.87;3.10;;;;;;;;;;5067777;28;20208;-33
2023/01/30 07:12:35;;;;;;;9.70;4.77;;;;;;;;;;5076122;28;20232;-31
2023/01/30 07:15:02;;;;;;;6.97;5.10;;;;;;;;;;5067780;28;20197;-30
2023/01/30 07:17:30;;;;;;;4.70;3.03;;;;;;;;;;5076250;28;20240;-30
2023/01/30 07:19:57;;;;;;;7.43;3.97;;;;;;;;;;5067715;28;20205;-31
2023/01/30 07:22:24;;;;;;;7.20;4.33;;;;;;;;;;5068844;28;20228;-29
2023/01/30 07:24:52;;;;;;;7.00;4.87;;;;;;;;;;5067716;28;20213;-30
2023/01/30 07:27:19;;;;;;;5.43;3.77;;;;;;;;;;5071570;28;20197;-28
2023/01/30 07:29:46;;;;;;;5.87;3.60;;;;;;;;;;5072045;28;20232;-30
2023/01/30 07:32:14;;;;;;;5.50;3.10;;;;;;;;;;5077184;28;20429;-26
2023/01/30 07:35:00;;;;;;;6.90;3.03;;;;;;;;;;5078958;28;20564;-30
2023/01/30 07:37:27;;;;;;;7.37;4.27;;;;;;;;;;5070013;28;20205;-34
2023/01/30 07:39:54;;;;;;;4.60;3.43;;;;;;;;;;5068317;28;20201;-26
2023/01/30 07:42:21;;;;;;;5.60;3.97;;;;;;;;;;5085296;28;20228;-29
2023/01/30 07:44:48;;;;;;;6.00;4.13;;;;;;;;;;5073450;28;20201;-33
2023/01/30 07:47:15;;;;;;;2.67;2.27;;;;;;;;;;5069104;28;20198;-28
2023/01/30 07:49:42;;;;;;;3.37;1.77;;;;;;;;;;5072781;28;20216;-30
2023/01/30 07:52:12;;;;;;;4.20;3.80;;;;;;;;;;5076411;28;20216;-31
2023/01/30 07:54:39;;;;;;;6.03;4.37;;;;;;;;;;5072639;28;20208;-31
2023/01/30 07:57:06;;;;;;;7.37;3.87;;;;;;;;;;5075804;28;20510;-32
2023/01/30 07:59:33;;;;;;;4.77;3.07;;;;;;;;;;5070935;28;20201;-36
2023/01/30 08:02:00;;;;;;;6.77;3.77;;;;;;;;;;5079928;28;20231;-38
2023/01/30 08:04:27;;;;;;;7.40;4.67;;;;;;;;;;5081699;28;20667;-34
2023/01/30 08:06:55;;;;;;;8.30;4.27;;;;;;;;;;5079778;28;20201;-32
2023/01/30 08:09:23;;;;;;;3.53;2.13;;;;;;;;;;5070780;28;20221;-34
2023/01/30 08:11:56;;;;;;;4.97;2.67;;;;;;;;;;5064573;28;20248;-32
2023/01/30 08:14:24;;;;;;;4.80;3.37;;;;;;;;;;5069696;28;20193;-31
2023/01/30 08:16:51;;;;;;;3.03;2.70;;;;;;;;;;5081230;28;20247;-29
2023/01/30 08:19:19;;;;;;;5.03;3.57;;;;;;;;;;5079775;28;20254;-31
2023/01/30 08:21:46;;;;;;;3.73;2.70;;;;;;;;;;5076562;28;20316;-29
2023/01/30 08:24:13;;;;;;;4.80;2.87;;;;;;;;;;5077027;28;20219;-28
2023/01/30 08:26:41;;;;;;;5.67;3.97;;;;;;;;;;5072319;28;20209;-34
2023/01/30 08:29:08;;;;;;;7.57;4.37;;;;;;;;;;5068023;28;20721;-32
2023/01/30 08:31:36;;;;;;;7.83;3.93;;;;;;;;;;5079293;28;20217;-35
2023/01/30 08:34:03;;;;;;;8.33;4.27;;;;;;;;;;5072652;28;20722;-34
2023/01/30 08:36:31;;;;;;;8.23;4.70;;;;;;;;;;5073234;28;20844;-34
2023/01/30 08:38:58;;;;;;;7.90;4.47;;;;;;;;;;5072119;28;20230;-30
2023/01/30 08:41:27;;;;;;;5.93;4.00;;;;;;;;;;5070866;28;20221;-30
2023/01/30 08:43:55;;;;;;;6.00;3.50;;;;;;;;;;5076171;28;20208;-29
2023/01/30 08:46:22;;;;;;;10.90;4.30;;;;;;;;;;5071909;28;20201;-37
2023/01/30 08:48:49;;;;;;;5.73;3.20;;;;;;;;;;5078960;28;20232;-27
2023/01/30 08:51:18;;;;;;;4.10;2.83;;;;;;;;;;5082099;28;20220;-28
2023/01/30 08:53:45;;;;;;;5.27;3.70;;;;;;;;;;5070106;28;20650;-26
2023/01/30 08:56:12;;;;;;;4.40;3.40;;;;;;;;;;5068826;28;20197;-33
2023/01/30 08:58:39;;;;;;;7.17;4.10;;;;;;;;;;5075921;28;20208;-30
2023/01/30 09:01:08;;;;;;;4.63;3.50;;;;;;;;;;5082277;28;20228;-34
2023/01/30 09:03:35;;;;;;;7.17;3.90;;;;;;;;;;5084714;28;20644;-33
2023/01/30 09:06:03;;;;;;;7.20;3.90;;;;;;;;;;5081862;28;20211;-32
2023/01/30 09:08:30;;;;;;;6.67;3.90;;;;;;;;;;5074790;28;20213;-32
2023/01/30 09:10:59;;;;;;;4.83;3.33;;;;;;;;;;5075996;28;20225;-32
2023/01/30 09:13:26;;;;;;;4.10;3.27;;;;;;;;;;5073313;28;20259;-29
2023/01/30 09:15:53;;;;;;;6.13;3.33;;;;;;;;;;5076011;28;20205;-31
2023/01/30 09:18:30;;;;;;;4.60;3.57;;;;;;;;;;5073976;28;20752;-30
2023/01/30 09:21:02;;;;;;;3.67;2.73;;;;;;;;;;5081240;28;20220;-36
2023/01/30 09:23:29;;;;;;;4.83;3.27;;;;;;;;;;5072874;28;20209;-31
2023/01/30 09:25:56;;;;;;;4.43;3.30;;;;;;;;;;5073684;28;20205;-29
2023/01/30 09:28:23;;;;;;;3.57;2.63;;;;;;;;;;5073559;28;20667;-31
2023/01/30 09:30:51;;;;;;;9.13;3.57;;;;;;;;;;5074092;28;20612;-33
2023/01/30 09:33:19;;;;;;;4.47;2.83;;;;;;;;;;5078015;28;20204;-34
2023/01/30 09:35:48;;;;;;;3.33;2.30;;;;;;;;;;5077466;28;20211;-36
2023/01/30 09:38:16;;;;;;;3.37;2.37;;;;;;;;;;5079155;28;20415;-30
2023/01/30 09:40:47;;;;;;;2.63;2.10;;;;;;;;;;5077007;28;20220;-31
2023/01/30 09:43:26;;;;;;;5.90;2.67;;;;;;;;;;5074821;28;20578;-31
2023/01/30 09:46:01;;;;;;;5.47;3.23;;;;;;;;;;5079826;28;20200;-31
2023/01/30 09:48:31;;;;;;;4.93;2.47;;;;;;;;;;5072053;28;20204;-32
2023/01/30 09:51:19;;;;;;;4.10;2.57;;;;;;;;;;5083255;28;20220;-29
2023/01/30 09:53:58;;;;;;;3.47;2.27;;;;;;;;;;5071943;28;20205;-32
2023/01/30 09:56:25;;;;;;;1.47;1.17;;;;;;;;;;5072677;28;20477;-30
2023/01/30 09:58:54;;;;;;;2.60;2.00;;;;;;;;;;5075938;28;20650;-29
2023/01/30 10:01:24;;;;;;;2.53;2.07;;;;;;;;;;5080838;28;20232;-29
2023/01/30 10:03:56;;;;;;;4.33;2.43;;;;;;;;;;5072037;28;20210;-32
2023/01/30 10:06:23;;;;;;;2.33;1.90;;;;;;;;;;5077796;28;20202;-27
2023/01/30 10:08:56;;;;;;;3.07;2.60;;;;;;;;;;5077019;28;20223;-35
2023/01/30 10:11:32;;;;;;;3.83;2.53;;;;;;;;;;5073821;28;20225;-34
2023/01/30 10:14:14;;;;;;;3.70;2.83;;;;;;;;;;5078403;28;20204;-32
2023/01/30 10:16:45;;;;;;;2.97;2.43;;;;;;;;;;5083467;28;20200;-31
2023/01/30 10:19:21;;;;;;;2.23;1.80;;;;;;;;;;5078190;28;20204;-37
2023/01/30 10:21:51;;;;;;;1.93;1.83;;;;;;;;;;5078853;28;20229;-34
2023/01/30 10:24:25;;;;;;;4.83;2.60;;;;;;;;;;5074681;28;20216;-27
2023/01/30 10:26:52;;;;;;;3.20;2.47;;;;;;;;;;5071350;28;20194;-37
2023/01/30 10:29:22;;;;;;;2.60;1.90;;;;;;;;;;5075426;28;20278;-28
2023/01/30 10:31:51;;;;;;;2.80;2.50;;;;;;;;;;5086731;28;20721;-32
2023/01/30 10:34:20;;;;;;;2.17;1.70;;;;;;;;;;5078722;28;20246;-27
2023/01/30 10:36:49;;;;;;;2.33;2.13;;;;;;;;;;5077420;28;20209;-32
2023/01/30 10:39:20;;;;;;;3.30;2.50;;;;;;;;;;5082134;28;20205;-32
2023/01/30 10:41:54;;;;;;;4.00;2.90;;;;;;;;;;5066950;28;20252;-28
2023/01/30 10:44:22;;;;;;;5.27;2.93;;;;;;;;;;5071431;28;20201;-33
2023/01/30 10:46:58;;;;;;;3.37;2.37;;;;;;;;;;5065931;28;20545;-29
2023/01/30 10:49:35;;;;;;;3.77;3.13;;;;;;;;;;5073990;28;20239;-33
2023/01/30 10:52:07;;;;;;;3.77;2.90;;;;;;;;;;5070452;28;20315;-29
2023/01/30 10:54:37;;;;;;;3.67;2.63;;;;;;;;;;5073499;28;20559;-35
2023/01/30 10:57:12;;;;;;;3.93;2.53;;;;;;;;;;5074839;28;20215;-32
2023/01/30 10:59:44;;;;;;;4.27;2.73;;;;;;;;;;5070367;28;20203;-27
2023/01/30 11:02:18;;;;;;;3.17;2.23;;;;;;;;;;5069153;28;20225;-35
2023/01/30 11:04:48;;;;;;;3.17;2.87;;;;;;;;;;5076963;28;20219;-33
2023/01/30 11:07:15;;;;;;;3.20;2.37;;;;;;;;;;5086488;28;20230;-34
2023/01/30 11:09:44;;;;;;;3.50;2.87;;;;;;;;;;5075245;28;20240;-35
2023/01/30 11:12:12;;;;;;;3.83;2.40;;;;;;;;;;5076202;28;20240;-31
2023/01/30 11:14:52;;;;;;;3.83;2.77;;;;;;;;;;5078305;28;20205;-35
2023/01/30 11:17:20;;;;;;;4.03;2.60;;;;;;;;;;5080007;28;20205;-33
2023/01/30 11:19:54;;;;;;;3.67;2.50;;;;;;;;;;5076132;28;20198;-32
2023/01/30 11:22:21;;;;;;;3.30;2.37;;;;;;;;;;5076060;28;20236;-30
2023/01/30 11:24:49;;;;;;;3.50;2.60;;;;;;;;;;5080180;28;20215;-33
2023/01/30 11:27:19;;;;;;;3.47;2.90;;;;;;;;;;5078298;28;20205;-30
2023/01/30 11:29:49;;;;;;;3.20;2.53;;;;;;;;;;5065711;28;20879;-33
2023/01/30 11:32:26;;;;;;;5.57;2.67;;;;;;;;;;5081669;28;20220;-31
2023/01/30 11:35:03;;;;;;;2.60;2.27;;;;;;;;;;5086443;28;20204;-29
2023/01/30 11:37:32;;;;;;;3.33;2.80;;;;;;;;;;5075439;28;20185;-28
2023/01/30 11:39:59;;;;;;;3.73;2.20;;;;;;;;;;5070441;28;20201;-34
2023/01/30 11:42:32;;;;;;;2.87;2.40;;;;;;;;;;5078828;28;20256;-30
2023/01/30 11:45:00;;;;;;;2.97;1.97;;;;;;;;;;5082954;28;20401;-41
2023/01/30 11:47:46;;;;;;;2.13;1.93;;;;;;;;;;5085755;28;20201;-34
2023/01/30 11:50:29;;;;;;;2.13;1.80;;;;;;;;;;5078157;28;20232;-34
2023/01/30 11:52:58;;;;;;;3.50;1.67;;;;;;;;;;5081478;28;20208;-33
2023/01/30 11:55:25;;;;;;;5.00;3.27;;;;;;;;;;5075351;28;20204;-30
2023/01/30 11:57:58;;;;;;;2.80;2.60;;;;;;;;;;5078660;28;20682;-29
2023/01/30 12:00:28;;;;;;;1.43;1.27;;;;;;;;;;5076939;28;20198;-29
2023/01/30 12:02:57;;;;;;;2.60;2.13;;;;;;;;;;5079640;28;20201;-28
2023/01/30 12:05:26;;;;;;;1.90;1.50;;;;;;;;;;5076145;28;20198;-31
2023/01/30 12:07:53;;;;;;;3.73;2.10;;;;;;;;;;5078655;28;20212;-30
2023/01/30 12:10:30;;;;;;;2.73;1.57;;;;;;;;;;5079339;28;20220;-35
2023/01/30 12:13:01;;;;;;;1.67;1.57;;;;;;;;;;5076904;28;20209;-31
2023/01/30 12:15:28;;;;;;;2.30;1.13;;;;;;;;;;5074171;28;20213;-34
2023/01/30 12:18:01;;;;;;;1.20;1.10;;;;;;;;;;5082317;28;20192;-31
2023/01/30 12:20:31;;;;;;;2.13;1.77;;;;;;;;;;5078566;28;20194;-36
2023/01/30 12:23:04;;;;;;;1.80;1.70;;;;;;;;;;5076726;28;20219;-29
2023/01/30 12:25:34;;;;;;;2.10;1.27;;;;;;;;;;5083563;28;20205;-27
2023/01/30 12:28:05;;;;;;;0.90;0.90;;;;;;;;;;5079068;28;20205;-35
2023/01/30 12:30:35;;;;;;;1.20;1.03;;;;;;;;;;5087833;28;20829;-37
2023/01/30 12:33:03;;;;;;;2.83;1.80;;;;;;;;;;5075226;28;20201;-32
2023/01/30 12:35:37;;;;;;;1.77;1.57;;;;;;;;;;5081625;28;20221;-27
2023/01/30 12:38:10;;;;;;;2.07;1.80;;;;;;;;;;5084357;28;20537;-33
2023/01/30 12:40:44;;;;;;;3.67;2.73;;;;;;;;;;5085298;28;20220;-35
2023/01/30 12:43:22;;;;;;;2.70;1.40;;;;;;;;;;5072510;28;20481;-26
2023/01/30 12:45:54;;;;;;;1.33;1.20;;;;;;;;;;5074465;28;20193;-33
2023/01/30 12:48:39;;;;;;;2.03;1.83;;;;;;;;;;5072359;28;20201;-27
2023/01/30 12:51:14;;;;;;;2.57;1.80;;;;;;;;;;5067304;28;20252;-34
2023/01/30 12:53:46;;;;;;;1.03;0.87;;;;;;;;;;5074607;28;20238;-35
2023/01/30 12:56:28;;;;;;;3.27;1.70;;;;;;;;;;5077327;28;20197;-28
2023/01/30 12:59:00;;;;;;;2.10;1.77;;;;;;;;;;5067135;28;20201;-34
2023/01/30 13:01:29;;;;;;;1.30;1.17;;;;;;;;;;5093018;28;20219;-31
2023/01/30 13:03:59;;;;;;;3.10;2.43;;;;;;;;;;5080849;28;20198;-31
2023/01/30 13:06:35;;;;;;;2.10;1.70;;;;;;;;;;5079097;28;20198;-27
2023/01/30 13:09:10;;;;;;;3.80;2.07;;;;;;;;;;5070954;28;20212;-30
2023/01/30 13:11:50;;;;;;;2.73;2.00;;;;;;;;;;5074282;28;20229;-33
2023/01/30 13:14:23;;;;;;;2.83;1.60;;;;;;;;;;5087425;28;20280;-33
2023/01/30 13:17:08;;;;;;;3.80;2.27;;;;;;;;;;5084864;28;20197;-34
2023/01/30 13:19:38;;;;;;;2.30;1.87;;;;;;;;;;5080746;28;20287;-29
2023/01/30 13:22:09;;;;;;;2.13;1.70;;;;;;;;;;5073814;28;20221;-31
2023/01/30 13:24:43;;;;;;;2.00;1.73;;;;;;;;;;5072167;28;20209;-33
2023/01/30 13:27:19;;;;;;;4.70;1.80;;;;;;;;;;5076517;28;20589;-30
2023/01/30 13:30:05;;;;;;;2.90;1.93;;;;;;;;;;5082509;28;20217;-33
2023/01/30 13:32:36;;;;;;;2.43;2.17;;;;;;;;;;5076740;28;20315;-29
2023/01/30 13:35:05;;;;;;;3.83;2.63;;;;;;;;;;5087376;28;20197;-29
2023/01/30 13:37:34;;;;;;;2.00;1.43;;;;;;;;;;5073195;28;20212;-34
2023/01/30 13:40:04;;;;;;;2.13;1.60;;;;;;;;;;5073633;28;20423;-31
2023/01/30 13:42:33;;;;;;;3.80;2.50;;;;;;;;;;5085385;28;20224;-30
2023/01/30 13:45:00;;;;;;;3.23;2.13;;;;;;;;;;5075139;28;20209;-33
2023/01/30 13:47:34;;;;;;;3.93;2.33;;;;;;;;;;5072463;28;20647;-29
2023/01/30 13:50:09;;;;;;;3.90;1.83;;;;;;;;;;5075429;28;20310;-29
2023/01/30 13:52:42;;;;;;;2.33;2.07;;;;;;;;;;5084454;28;20218;-31
2023/01/30 13:55:16;;;;;;;3.30;2.30;;;;;;;;;;5073986;28;20205;-33
2023/01/30 13:57:46;;;;;;;4.83;2.27;;;;;;;;;;5075134;28;20208;-33
2023/01/30 14:00:24;;;;;;;4.13;2.07;;;;;;;;;;5077699;28;20204;-29
2023/01/30 14:03:11;;;;;;;3.60;2.33;;;;;;;;;;5086316;28;20211;-33
2023/01/30 14:05:58;;;;;;;4.60;2.40;;;;;;;;;;5082815;28;20205;-28
2023/01/30 14:08:36;;;;;;;2.20;1.77;;;;;;;;;;5086367;28;20840;-26
2023/01/30 14:11:04;;;;;;;5.50;3.10;;;;;;;;;;5077154;28;20224;-31
2023/01/30 14:13:51;;;;;;;4.93;2.40;;;;;;;;;;5074067;28;20227;-31
2023/01/30 14:16:18;;;;;;;3.03;2.20;;;;;;;;;;5077227;28;20815;-29
2023/01/30 14:18:45;;;;;;;4.33;2.73;;;;;;;;;;5085457;28;20215;-28
2023/01/30 14:21:13;;;;;;;4.20;2.50;;;;;;;;;;5076852;28;20232;-33
2023/01/30 14:23:43;;;;;;;10.53;6.67;;;;;;;;;;5072242;28;20300;-33
2023/01/30 14:26:10;;;;;;;5.97;2.90;;;;;;;;;;5076218;28;20212;-32
2023/01/30 14:28:47;;;;;;;2.80;2.03;;;;;;;;;;5072365;28;20258;-28
2023/01/30 14:31:29;;;;;;;2.77;1.90;;;;;;;;;;5071505;28;20285;-30
2023/01/30 14:33:56;;;;;;;2.77;1.93;;;;;;;;;;5070140;28;20212;-30
2023/01/30 14:36:33;;;;;;;3.57;2.67;;;;;;;;;;5075346;28;20573;-34
2023/01/30 14:39:15;;;;;;;4.50;2.80;;;;;;;;;;5067018;28;20671;-33
2023/01/30 14:41:44;;;;;;;3.53;2.60;;;;;;;;;;5078899;28;20227;-31
2023/01/30 14:44:11;;;;;;;2.63;2.00;;;;;;;;;;5071386;28;20217;-29
2023/01/30 14:46:48;;;;;;;2.67;2.10;;;;;;;;;;5071709;28;20201;-29
2023/01/30 14:49:32;;;;;;;4.00;2.63;;;;;;;;;;5070154;28;20193;-32
2023/01/30 14:51:59;;;;;;;1.70;1.53;;;;;;;;;;5073958;28;20228;-35
2023/01/30 14:54:28;;;;;;;3.60;2.37;;;;;;;;;;5074282;28;20209;-31
2023/01/30 14:56:59;;;;;;;3.63;2.50;;;;;;;;;;5070214;28;20201;-28
2023/01/30 14:59:28;;;;;;;2.63;1.93;;;;;;;;;;5075822;28;20207;-29
2023/01/30 15:02:09;;;;;;;3.53;3.00;;;;;;;;;;5081400;28;20572;-34
2023/01/30 15:04:58;;;;;;;6.03;3.03;;;;;;;;;;5074273;28;20659;-30